Time;durP1;ratioP1;P1;durP2;ratioP2;P2;SDS_P1;SDS_P2;PMS_P1;PMS_P2;Temp;Humidity;BMP_temperature;BMP_pressure;BME280_temperature;BME280_humidity;BME280_pressure;Samples;Min_cycle;Max_cycle;Signal;HPM_P1;HPM_P2
2023/07/23 00:00:24;;;;;;;15.90;8.05;;;13.70;99.90;;;;;;5005661;28;20041;-75
2023/07/23 00:02:50;;;;;;;13.23;7.28;;;13.70;99.90;;;;;;4989132;28;20038;-76
2023/07/23 00:05:16;;;;;;;16.52;7.65;;;13.70;99.90;;;;;;5006187;28;20136;-75
2023/07/23 00:07:42;;;;;;;14.13;7.82;;;13.70;99.90;;;;;;4990149;28;20144;-75
2023/07/23 00:10:11;;;;;;;15.75;7.75;;;13.70;99.90;;;;;;5006713;28;20611;-75
2023/07/23 00:12:37;;;;;;;14.60;8.55;;;13.70;99.90;;;;;;4989606;28;20034;-75
2023/07/23 00:15:04;;;;;;;17.92;7.95;;;13.70;99.90;;;;;;5004828;28;20037;-75
2023/07/23 00:17:30;;;;;;;13.73;7.55;;;13.70;99.90;;;;;;5005959;28;20038;-75
2023/07/23 00:19:56;;;;;;;15.15;8.13;;;13.70;99.90;;;;;;4989528;28;20471;-75
2023/07/23 00:22:21;;;;;;;15.07;7.97;;;13.70;99.90;;;;;;4989297;28;20037;-76
2023/07/23 00:24:47;;;;;;;16.52;9.02;;;13.70;99.90;;;;;;5022260;28;20095;-75
2023/07/23 00:27:16;;;;;;;16.17;8.27;;;13.80;99.90;;;;;;5005110;28;20131;-75
2023/07/23 00:29:42;;;;;;;17.65;9.20;;;13.80;99.90;;;;;;5004775;28;20172;-75
2023/07/23 00:32:08;;;;;;;20.38;9.13;;;13.80;99.90;;;;;;4988476;28;20121;-75
2023/07/23 00:34:34;;;;;;;14.90;9.13;;;13.80;99.90;;;;;;5002994;28;20426;-76
2023/07/23 00:37:00;;;;;;;12.50;8.27;;;13.80;99.90;;;;;;4990086;28;20061;-75
2023/07/23 00:39:26;;;;;;;18.63;8.95;;;13.80;99.90;;;;;;4987254;28;20033;-75
2023/07/23 00:41:52;;;;;;;15.57;7.90;;;13.80;99.90;;;;;;5004685;28;20418;-76
2023/07/23 00:44:18;;;;;;;16.48;7.95;;;13.80;99.90;;;;;;4988439;28;20070;-75
2023/07/23 00:46:44;;;;;;;13.27;7.47;;;13.70;99.90;;;;;;5002479;28;20104;-75
2023/07/23 00:49:11;;;;;;;15.43;7.80;;;13.80;99.90;;;;;;4988583;28;20052;-76
2023/07/23 00:51:37;;;;;;;15.05;7.75;;;13.70;99.90;;;;;;5005463;28;20032;-75
2023/07/23 00:54:04;;;;;;;18.55;7.80;;;13.70;99.90;;;;;;4973744;28;20413;-76
2023/07/23 00:56:31;;;;;;;12.88;7.03;;;13.80;99.90;;;;;;5004967;28;20081;-75
2023/07/23 00:58:57;;;;;;;15.57;7.45;;;13.80;99.90;;;;;;5005308;28;20813;-76
2023/07/23 01:01:25;;;;;;;13.07;7.70;;;13.70;99.90;;;;;;4988177;28;20056;-75
2023/07/23 01:03:51;;;;;;;13.75;7.13;;;13.70;99.90;;;;;;4988199;28;20042;-76
2023/07/23 01:06:18;;;;;;;13.23;6.90;;;13.70;99.90;;;;;;4989535;28;20045;-76
2023/07/23 01:08:45;;;;;;;13.10;7.70;;;13.80;99.90;;;;;;5005265;28;20486;-76
2023/07/23 01:11:11;;;;;;;15.65;8.00;;;13.80;99.90;;;;;;5004746;28;20149;-76
2023/07/23 01:13:38;;;;;;;14.07;7.20;;;13.80;99.90;;;;;;4989236;28;20077;-76
2023/07/23 01:16:07;;;;;;;17.20;7.38;;;13.70;99.90;;;;;;4955788;28;20177;-75
2023/07/23 01:18:40;;;;;;;13.70;6.93;;;13.70;99.90;;;;;;4988966;28;20263;-75
2023/07/23 01:21:06;;;;;;;15.52;7.07;;;13.70;99.90;;;;;;4989825;28;20493;-76
2023/07/23 01:23:32;;;;;;;14.60;8.00;;;13.70;99.90;;;;;;5003616;28;20082;-75
2023/07/23 01:25:58;;;;;;;16.13;7.75;;;13.70;99.90;;;;;;5000358;28;20287;-76
2023/07/23 01:28:24;;;;;;;15.60;8.18;;;13.70;99.90;;;;;;5003977;28;20046;-76
2023/07/23 01:30:52;;;;;;;16.00;7.63;;;13.70;99.90;;;;;;4987734;28;20056;-75
2023/07/23 01:33:19;;;;;;;14.85;7.85;;;13.70;99.90;;;;;;5005633;28;20092;-75
2023/07/23 01:35:45;;;;;;;15.85;8.35;;;13.70;99.90;;;;;;4988504;28;20375;-75
2023/07/23 01:38:12;;;;;;;19.45;7.53;;;13.70;99.90;;;;;;4971896;28;20038;-76
2023/07/23 01:40:40;;;;;;;18.27;7.72;;;13.70;99.90;;;;;;5003496;28;20044;-76
2023/07/23 01:43:06;;;;;;;14.43;7.88;;;13.70;99.90;;;;;;5004925;28;20121;-75
2023/07/23 01:45:32;;;;;;;17.83;7.95;;;13.70;99.90;;;;;;5003142;28;20045;-76
2023/07/23 01:47:58;;;;;;;17.63;7.80;;;13.70;99.90;;;;;;4988283;28;20049;-76
2023/07/23 01:50:24;;;;;;;15.05;7.22;;;13.70;99.90;;;;;;5002280;28;20065;-76
2023/07/23 01:52:50;;;;;;;16.13;7.30;;;13.70;99.90;;;;;;4988738;28;20078;-76
2023/07/23 01:55:16;;;;;;;18.70;8.07;;;13.70;99.90;;;;;;5005261;28;20096;-75
2023/07/23 01:57:41;;;;;;;23.58;8.57;;;13.70;99.90;;;;;;5005116;28;20038;-75
2023/07/23 02:00:08;;;;;;;20.30;9.15;;;13.70;99.90;;;;;;4975015;28;20081;-75
2023/07/23 02:02:34;;;;;;;21.02;7.93;;;13.70;99.90;;;;;;5008958;28;20100;-75
2023/07/23 02:05:00;;;;;;;14.68;8.07;;;13.60;99.90;;;;;;4975212;28;20121;-75
2023/07/23 02:07:25;;;;;;;20.08;9.48;;;13.70;99.90;;;;;;5008508;28;20038;-75
2023/07/23 02:09:51;;;;;;;18.50;8.57;;;13.60;99.90;;;;;;4991696;28;20498;-75
2023/07/23 02:12:17;;;;;;;22.52;8.07;;;13.70;99.90;;;;;;4997056;28;20593;-76
2023/07/23 02:14:43;;;;;;;20.27;8.10;;;13.60;99.90;;;;;;5008763;28;20041;-76
2023/07/23 02:17:09;;;;;;;17.63;8.23;;;13.70;99.90;;;;;;5008586;28;20406;-75
2023/07/23 02:19:36;;;;;;;18.27;8.90;;;13.70;99.90;;;;;;4959555;28;20042;-75
2023/07/23 02:22:03;;;;;;;19.25;10.40;;;13.70;99.90;;;;;;4986848;28;20486;-75
2023/07/23 02:24:28;;;;;;;17.20;8.20;;;13.60;99.90;;;;;;5007708;28;20406;-76
2023/07/23 02:26:54;;;;;;;20.90;9.52;;;13.60;99.90;;;;;;5004735;28;20050;-75
2023/07/23 02:29:20;;;;;;;21.00;9.73;;;13.70;99.90;;;;;;5006355;28;20034;-75
2023/07/23 02:31:45;;;;;;;23.52;9.43;;;13.70;99.90;;;;;;5007693;28;20095;-75
2023/07/23 02:34:11;;;;;;;15.93;8.82;;;13.60;99.90;;;;;;5005897;28;20038;-75
2023/07/23 02:36:37;;;;;;;21.63;9.63;;;13.70;99.90;;;;;;4974671;28;20049;-75
2023/07/23 02:39:03;;;;;;;25.17;9.45;;;13.70;99.90;;;;;;4973746;28;20033;-76
2023/07/23 02:41:29;;;;;;;17.77;8.93;;;13.70;99.90;;;;;;4975373;28;20130;-75
2023/07/23 02:43:55;;;;;;;21.95;9.60;;;13.70;99.90;;;;;;4991861;28;20129;-76
2023/07/23 02:46:20;;;;;;;19.45;8.65;;;13.70;99.90;;;;;;4975936;28;20494;-75
2023/07/23 02:48:46;;;;;;;26.83;10.15;;;13.70;99.90;;;;;;4974936;28;20602;-75
2023/07/23 02:51:12;;;;;;;19.13;9.05;;;13.70;99.90;;;;;;5004984;28;20041;-75
2023/07/23 02:53:37;;;;;;;24.63;9.60;;;13.70;99.90;;;;;;5003353;28;20038;-75
2023/07/23 02:56:03;;;;;;;22.13;10.30;;;13.70;99.90;;;;;;4975701;28;20095;-75
2023/07/23 02:58:29;;;;;;;20.77;10.18;;;13.70;99.90;;;;;;5007237;28;20037;-75
2023/07/23 03:00:57;;;;;;;22.40;9.10;;;13.70;99.90;;;;;;4982539;28;20800;-75
2023/07/23 03:03:24;;;;;;;20.50;10.10;;;13.70;99.90;;;;;;5004386;28;20049;-76
2023/07/23 03:05:50;;;;;;;18.38;10.25;;;13.70;99.90;;;;;;5007274;28;20402;-76
2023/07/23 03:08:16;;;;;;;21.10;10.15;;;13.70;99.90;;;;;;5007651;28;20033;-75
2023/07/23 03:10:42;;;;;;;22.35;10.43;;;13.70;99.90;;;;;;4985637;28;20045;-76
2023/07/23 03:13:08;;;;;;;20.90;9.57;;;13.70;99.90;;;;;;5011124;28;20038;-76
2023/07/23 03:15:35;;;;;;;21.73;9.85;;;13.70;99.90;;;;;;5017683;28;20065;-75
2023/07/23 03:18:01;;;;;;;20.67;9.77;;;13.70;99.90;;;;;;5017682;28;20052;-75
2023/07/23 03:20:27;;;;;;;21.75;10.27;;;13.70;99.90;;;;;;5027317;28;20394;-75
2023/07/23 03:22:53;;;;;;;19.67;9.73;;;13.70;99.90;;;;;;4992266;28;20042;-76
2023/07/23 03:25:18;;;;;;;20.83;10.27;;;13.70;99.90;;;;;;5014869;28;20044;-76
2023/07/23 03:27:44;;;;;;;22.00;10.20;;;13.70;99.90;;;;;;5015942;28;20048;-76
2023/07/23 03:30:11;;;;;;;19.92;10.68;;;13.70;99.90;;;;;;5012558;28;20575;-76
2023/07/23 03:32:37;;;;;;;21.13;10.48;;;13.70;99.90;;;;;;5006112;28;20046;-76
2023/07/23 03:35:04;;;;;;;25.08;10.82;;;13.70;99.90;;;;;;5010906;28;20119;-76
2023/07/23 03:37:29;;;;;;;22.40;10.48;;;13.70;99.90;;;;;;5006944;28;20069;-76
2023/07/23 03:39:55;;;;;;;22.77;11.60;;;13.70;99.90;;;;;;4985487;28;20080;-76
2023/07/23 03:42:21;;;;;;;21.73;10.50;;;13.70;99.90;;;;;;5006933;28;20129;-76
2023/07/23 03:44:46;;;;;;;22.40;11.07;;;13.70;99.90;;;;;;5006460;28;20044;-76
2023/07/23 03:47:15;;;;;;;26.35;10.63;;;13.70;99.90;;;;;;5006224;28;20088;-76
2023/07/23 03:49:41;;;;;;;20.13;10.57;;;13.80;99.90;;;;;;4986427;28;20050;-77
2023/07/23 03:52:07;;;;;;;22.73;9.60;;;13.80;99.90;;;;;;5006648;28;20451;-76
2023/07/23 03:54:34;;;;;;;23.98;10.85;;;13.70;99.90;;;;;;4991148;28;20124;-76
2023/07/23 03:57:00;;;;;;;22.75;10.27;;;13.70;99.90;;;;;;5005136;28;20042;-76
2023/07/23 03:59:36;;;;;;;18.73;10.57;;;13.80;99.90;;;;;;4988316;28;20112;-76
2023/07/23 04:02:02;;;;;;;22.00;10.75;;;13.80;99.90;;;;;;5005576;28;21052;-76
2023/07/23 04:04:28;;;;;;;20.70;10.75;;;13.80;99.90;;;;;;5005662;28;20081;-76
2023/07/23 04:06:54;;;;;;;21.92;10.48;;;13.80;99.90;;;;;;5004676;28;20073;-76
2023/07/23 04:09:20;;;;;;;24.27;10.93;;;13.80;99.90;;;;;;4989503;28;20117;-77
2023/07/23 04:11:46;;;;;;;22.10;10.85;;;13.80;99.90;;;;;;5005453;28;20037;-76
2023/07/23 04:14:12;;;;;;;19.85;9.75;;;13.80;99.90;;;;;;4989753;28;20034;-76
2023/07/23 04:16:38;;;;;;;20.23;10.15;;;13.90;99.90;;;;;;4989150;28;20131;-76
2023/07/23 04:19:04;;;;;;;19.15;10.50;;;13.80;99.90;;;;;;4973994;28;20130;-76
2023/07/23 04:21:30;;;;;;;24.85;10.68;;;13.90;99.90;;;;;;5005452;28;20133;-76
2023/07/23 04:23:57;;;;;;;25.05;10.60;;;13.90;99.90;;;;;;5005829;28;20045;-76
2023/07/23 04:26:27;;;;;;;18.73;10.50;;;13.90;99.90;;;;;;4986324;28;20522;-76
2023/07/23 04:28:53;;;;;;;17.63;10.63;;;13.90;99.90;;;;;;5019353;28;20041;-76
2023/07/23 04:31:19;;;;;;;16.05;10.35;;;13.90;99.90;;;;;;5005446;28;20050;-76
2023/07/23 04:33:45;;;;;;;18.08;10.82;;;13.90;99.90;;;;;;4987935;28;20046;-76
2023/07/23 04:36:12;;;;;;;21.65;10.68;;;13.90;99.90;;;;;;4968437;28;20085;-76
2023/07/23 04:38:39;;;;;;;19.02;10.82;;;13.90;99.90;;;;;;5007378;28;20063;-76
2023/07/23 04:41:05;;;;;;;16.63;10.13;;;13.90;99.90;;;;;;4990166;28;20049;-76
2023/07/23 04:43:31;;;;;;;16.45;10.73;;;13.90;99.90;;;;;;5003890;28;20453;-76
2023/07/23 04:45:56;;;;;;;24.10;10.93;;;14.00;99.90;;;;;;4985630;28;20117;-76
2023/07/23 04:48:22;;;;;;;19.33;10.95;;;14.00;99.90;;;;;;5005066;28;20529;-76
2023/07/23 04:50:58;;;;;;;19.42;10.57;;;14.00;99.90;;;;;;4985962;28;20061;-77
2023/07/23 04:53:25;;;;;;;19.80;10.45;;;14.00;99.90;;;;;;5005053;28;21666;-76
2023/07/23 04:55:55;;;;;;;20.90;11.50;;;14.00;99.90;;;;;;5022121;28;20045;-76
2023/07/23 04:58:22;;;;;;;20.00;10.57;;;14.00;99.90;;;;;;4988928;28;20037;-77
2023/07/23 05:00:48;;;;;;;24.08;11.60;;;14.00;99.90;;;;;;5000414;28;20117;-76
2023/07/23 05:03:14;;;;;;;20.33;11.32;;;14.00;99.90;;;;;;4989231;28;20491;-76
2023/07/23 05:05:49;;;;;;;17.20;11.25;;;14.00;99.90;;;;;;5022404;28;20045;-76
2023/07/23 05:08:15;;;;;;;24.15;11.32;;;14.00;99.90;;;;;;4999500;28;20042;-76
2023/07/23 05:10:41;;;;;;;24.63;10.75;;;14.10;99.90;;;;;;5002376;28;20046;-76
2023/07/23 05:13:07;;;;;;;21.08;10.90;;;14.00;99.90;;;;;;5001500;28;20426;-77
2023/07/23 05:15:32;;;;;;;21.00;10.38;;;14.10;99.90;;;;;;5004998;28;20050;-76
2023/07/23 05:17:58;;;;;;;22.52;10.25;;;14.10;99.90;;;;;;4985882;28;20034;-76
2023/07/23 05:20:24;;;;;;;19.30;10.82;;;14.10;99.90;;;;;;4987306;28;20515;-76
2023/07/23 05:22:50;;;;;;;22.40;10.57;;;14.10;99.90;;;;;;5001058;28;20376;-76
2023/07/23 05:25:16;;;;;;;18.23;10.98;;;14.10;99.90;;;;;;5013776;28;20462;-77
2023/07/23 05:27:42;;;;;;;20.60;11.35;;;14.10;99.90;;;;;;4988572;28;20038;-77
2023/07/23 05:30:08;;;;;;;18.45;10.55;;;14.10;99.90;;;;;;5000522;28;20057;-77
2023/07/23 05:32:34;;;;;;;16.60;10.07;;;14.20;99.90;;;;;;5002452;28;20041;-77
2023/07/23 05:35:00;;;;;;;19.38;10.35;;;14.20;99.90;;;;;;5004706;28;20036;-77
2023/07/23 05:37:25;;;;;;;18.67;10.30;;;14.20;99.90;;;;;;5012645;28;20563;-77
2023/07/23 05:39:53;;;;;;;19.13;10.98;;;14.20;99.90;;;;;;4975921;28;20040;-77
2023/07/23 05:42:19;;;;;;;20.13;10.90;;;14.20;99.90;;;;;;5005526;28;20033;-77
2023/07/23 05:44:45;;;;;;;17.33;10.32;;;14.30;99.90;;;;;;5007882;28;20104;-77
2023/07/23 05:47:11;;;;;;;19.45;11.23;;;14.30;99.90;;;;;;5007275;28;20038;-77
2023/07/23 05:49:36;;;;;;;20.52;10.20;;;14.30;99.90;;;;;;5008196;28;20096;-77
2023/07/23 05:52:02;;;;;;;21.60;10.30;;;14.30;99.90;;;;;;4992835;28;20036;-77
2023/07/23 05:54:28;;;;;;;17.45;10.20;;;14.40;99.90;;;;;;5008817;28;20486;-77
2023/07/23 05:56:54;;;;;;;19.70;11.10;;;14.40;99.90;;;;;;5007487;28;20133;-77
2023/07/23 05:59:19;;;;;;;16.63;10.50;;;14.40;99.90;;;;;;4992534;28;20403;-77
2023/07/23 06:01:45;;;;;;;19.52;11.25;;;14.50;99.90;;;;;;4991657;28;20045;-77
2023/07/23 06:04:11;;;;;;;23.10;11.35;;;14.50;99.90;;;;;;4992374;28;20040;-77
2023/07/23 06:06:36;;;;;;;18.23;10.65;;;14.50;99.90;;;;;;4991984;28;20096;-77
2023/07/23 06:09:03;;;;;;;20.40;11.43;;;14.60;99.90;;;;;;5007237;28;20036;-77
2023/07/23 06:11:30;;;;;;;21.13;11.05;;;14.60;99.90;;;;;;5007176;28;20129;-77
2023/07/23 06:13:56;;;;;;;20.77;11.68;;;14.70;99.90;;;;;;5008052;28;20071;-77
2023/07/23 06:16:21;;;;;;;24.10;11.95;;;14.70;99.90;;;;;;4986198;28;20152;-77
2023/07/23 06:18:47;;;;;;;21.10;11.18;;;14.70;99.90;;;;;;4990554;28;20121;-77
2023/07/23 06:21:13;;;;;;;16.98;10.20;;;14.80;99.90;;;;;;4966483;28;20040;-77
2023/07/23 06:23:38;;;;;;;19.45;10.55;;;14.80;99.90;;;;;;4990042;28;20046;-76
2023/07/23 06:26:04;;;;;;;15.63;9.93;;;14.80;99.90;;;;;;4991185;28;20057;-77
2023/07/23 06:28:31;;;;;;;18.40;11.27;;;14.90;99.90;;;;;;5005955;28;20039;-77
2023/07/23 06:30:56;;;;;;;15.93;9.55;;;14.90;99.90;;;;;;4990346;28;20403;-77
2023/07/23 06:33:22;;;;;;;20.13;10.13;;;15.00;99.90;;;;;;4990679;28;20042;-77
2023/07/23 06:35:48;;;;;;;16.67;9.35;;;15.10;99.90;;;;;;4991314;28;20069;-76
2023/07/23 06:38:15;;;;;;;16.17;9.30;;;15.10;99.90;;;;;;5006450;28;20482;-77
2023/07/23 06:40:48;;;;;;;18.27;9.63;;;15.20;99.90;;;;;;4990789;28;20136;-77
2023/07/23 06:43:16;;;;;;;16.33;10.45;;;15.20;99.90;;;;;;5023034;28;20057;-77
2023/07/23 06:45:43;;;;;;;15.82;8.82;;;15.20;99.90;;;;;;5003923;28;20065;-77
2023/07/23 06:48:09;;;;;;;14.00;8.88;;;15.30;99.90;;;;;;4989089;28;20510;-77
2023/07/23 06:50:35;;;;;;;15.50;9.30;;;15.30;99.90;;;;;;5006537;28;20042;-77
2023/07/23 06:53:01;;;;;;;12.77;8.48;;;15.30;99.90;;;;;;4974521;28;20272;-77
2023/07/23 06:55:26;;;;;;;14.35;8.98;;;15.30;99.90;;;;;;5023550;28;20504;-77
2023/07/23 06:57:52;;;;;;;14.13;8.25;;;15.40;99.90;;;;;;4990755;28;20455;-77
2023/07/23 07:00:18;;;;;;;17.02;8.63;;;15.40;99.90;;;;;;4990743;28;20033;-77
2023/07/23 07:02:43;;;;;;;14.90;8.45;;;15.40;99.90;;;;;;4989527;28;20030;-76
2023/07/23 07:05:09;;;;;;;12.55;7.85;;;15.40;99.90;;;;;;4974336;28;20034;-77
2023/07/23 07:07:36;;;;;;;11.57;7.97;;;15.40;99.90;;;;;;4953307;28;20089;-76
2023/07/23 07:10:08;;;;;;;16.65;8.07;;;15.40;99.90;;;;;;4960476;28;20124;-76
2023/07/23 07:12:34;;;;;;;16.73;8.38;;;15.40;99.90;;;;;;5006322;28;20034;-76
2023/07/23 07:14:59;;;;;;;14.80;7.95;;;15.40;99.90;;;;;;4991256;28;20443;-76
2023/07/23 07:17:25;;;;;;;13.50;8.27;;;15.40;99.90;;;;;;4988043;28;20044;-76
2023/07/23 07:19:51;;;;;;;14.35;8.43;;;15.50;99.90;;;;;;4973661;28;20042;-77
2023/07/23 07:22:17;;;;;;;12.48;7.85;;;15.50;99.90;;;;;;5003990;28;20406;-77
2023/07/23 07:24:43;;;;;;;17.00;9.00;;;15.50;99.90;;;;;;4990229;28;20046;-77
2023/07/23 07:27:09;;;;;;;17.25;8.48;;;15.50;99.90;;;;;;4974579;28;20042;-76
2023/07/23 07:29:38;;;;;;;15.48;7.35;;;15.50;99.90;;;;;;4988736;28;20069;-76
2023/07/23 07:32:05;;;;;;;15.40;8.80;;;15.50;99.90;;;;;;4953571;28;20039;-76
2023/07/23 07:34:30;;;;;;;17.80;8.98;;;15.60;99.90;;;;;;4953560;28;20034;-77
2023/07/23 07:36:56;;;;;;;12.30;8.63;;;15.60;99.90;;;;;;4970387;28;20049;-77
2023/07/23 07:39:22;;;;;;;13.70;7.82;;;15.50;99.90;;;;;;4952443;28;20502;-77
2023/07/23 07:41:47;;;;;;;14.38;8.48;;;15.50;99.90;;;;;;4985462;28;20038;-77
2023/07/23 07:44:13;;;;;;;14.00;8.85;;;15.50;99.90;;;;;;4936945;28;20480;-77
2023/07/23 07:46:39;;;;;;;14.27;9.38;;;15.60;99.90;;;;;;4969914;28;20409;-77
2023/07/23 07:49:05;;;;;;;16.52;9.02;;;15.50;99.90;;;;;;4953897;28;20125;-77
2023/07/23 07:51:31;;;;;;;15.70;8.00;;;15.50;99.90;;;;;;4950551;28;20483;-77
2023/07/23 07:53:57;;;;;;;11.77;7.75;;;15.50;99.90;;;;;;4988176;28;20061;-77
2023/07/23 07:56:22;;;;;;;14.45;8.82;;;15.50;99.90;;;;;;4953620;28;20053;-77
2023/07/23 07:58:48;;;;;;;14.77;8.80;;;15.50;99.90;;;;;;4936102;28;20049;-77
2023/07/23 08:01:14;;;;;;;13.90;8.02;;;15.50;99.90;;;;;;4953174;28;20494;-77
2023/07/23 08:03:40;;;;;;;16.10;8.82;;;15.40;99.90;;;;;;4976451;28;20111;-77
2023/07/23 08:06:06;;;;;;;17.65;8.77;;;15.40;99.90;;;;;;4968532;28;20038;-77
2023/07/23 08:08:37;;;;;;;15.32;8.70;;;15.40;99.90;;;;;;4970810;28;20042;-77
2023/07/23 08:11:08;;;;;;;17.00;8.75;;;15.30;99.90;;;;;;4954829;28;20112;-77
2023/07/23 08:13:37;;;;;;;17.05;8.20;;;15.30;99.90;;;;;;4969735;28;20038;-77
2023/07/23 08:16:04;;;;;;;18.27;9.10;;;15.30;99.90;;;;;;4983536;28;20053;-77
2023/07/23 08:18:30;;;;;;;20.00;9.13;;;15.30;99.90;;;;;;4968370;28;20077;-78
2023/07/23 08:20:57;;;;;;;13.40;8.57;;;15.20;99.90;;;;;;4968928;28;20046;-77
2023/07/23 08:23:26;;;;;;;20.98;8.60;;;15.20;99.90;;;;;;4969475;28;20054;-77
2023/07/23 08:25:56;;;;;;;17.08;7.90;;;15.10;99.90;;;;;;4953888;28;20325;-78
2023/07/23 08:28:25;;;;;;;18.30;8.75;;;15.10;99.90;;;;;;4952847;28;20057;-79
2023/07/23 08:30:51;;;;;;;15.05;7.43;;;15.20;99.90;;;;;;4961402;28;20053;-79
2023/07/23 08:33:24;;;;;;;14.02;7.88;;;15.20;99.90;;;;;;4991592;28;20034;-79
2023/07/23 08:35:50;;;;;;;12.48;7.68;;;15.20;99.90;;;;;;5004323;28;20384;-77
2023/07/23 08:38:16;;;;;;;14.48;7.90;;;15.20;99.90;;;;;;4973114;28;20368;-76
2023/07/23 08:40:44;;;;;;;13.48;7.15;;;15.20;99.90;;;;;;4973396;28;20042;-77
2023/07/23 08:43:34;;;;;;;18.50;7.65;;;15.10;99.90;;;;;;4955821;28;20100;-77
2023/07/23 08:46:25;;;;;;;14.00;7.50;;;15.10;99.90;;;;;;4989155;28;20073;-77
2023/07/23 08:49:05;;;;;;;12.85;8.18;;;15.20;99.90;;;;;;4987064;28;20103;-77
2023/07/23 08:51:39;;;;;;;17.23;8.07;;;15.20;99.90;;;;;;4973286;28;20113;-77
2023/07/23 08:54:06;;;;;;;13.23;7.05;;;15.30;99.90;;;;;;4986787;28;20034;-77
2023/07/23 08:56:33;;;;;;;14.02;7.10;;;15.20;99.90;;;;;;5001612;28;20034;-77
2023/07/23 08:59:02;;;;;;;15.23;7.47;;;15.20;99.90;;;;;;4984577;28;20038;-77
2023/07/23 09:01:33;;;;;;;14.68;8.07;;;15.20;99.90;;;;;;4987430;28;20487;-77
2023/07/23 09:03:59;;;;;;;18.35;7.50;;;15.20;99.90;;;;;;4957178;28;20054;-77
2023/07/23 09:06:29;;;;;;;16.98;8.05;;;15.30;99.90;;;;;;4988740;28;20038;-76
2023/07/23 09:09:09;;;;;;;16.10;8.30;;;15.30;99.90;;;;;;4992907;28;20034;-76
2023/07/23 09:11:36;;;;;;;14.40;7.82;;;15.30;99.90;;;;;;4993179;28;20030;-75
2023/07/23 09:14:09;;;;;;;14.05;7.63;;;15.30;99.90;;;;;;4990564;28;20049;-76
2023/07/23 09:16:41;;;;;;;13.85;8.15;;;15.30;99.90;;;;;;5008124;28;20099;-75
2023/07/23 09:19:11;;;;;;;11.85;7.00;;;15.30;99.90;;;;;;4992715;28;20475;-75
2023/07/23 09:21:38;;;;;;;11.40;7.28;;;15.30;99.90;;;;;;4976330;28;20041;-76
2023/07/23 09:24:06;;;;;;;14.88;7.93;;;15.30;99.90;;;;;;4975938;28;20045;-75
2023/07/23 09:26:33;;;;;;;13.30;7.72;;;15.30;99.90;;;;;;5008123;28;20140;-75
2023/07/23 09:29:03;;;;;;;16.55;8.00;;;15.20;99.90;;;;;;5006995;28;20046;-75
2023/07/23 09:31:33;;;;;;;12.30;7.28;;;15.20;99.90;;;;;;4976074;28;20060;-76
2023/07/23 09:34:01;;;;;;;14.60;7.55;;;15.20;99.90;;;;;;4975971;28;20542;-75
2023/07/23 09:36:29;;;;;;;12.68;8.05;;;15.20;99.90;;;;;;4989142;28;20085;-76
2023/07/23 09:38:54;;;;;;;11.70;6.90;;;15.10;99.90;;;;;;4960483;28;20326;-75
2023/07/23 09:41:20;;;;;;;12.48;7.32;;;15.20;99.90;;;;;;4992784;28;20080;-75
2023/07/23 09:43:46;;;;;;;12.02;7.63;;;15.20;99.90;;;;;;4973881;28;20395;-75
2023/07/23 09:46:12;;;;;;;12.52;7.43;;;15.20;99.90;;;;;;4961504;28;20116;-77
2023/07/23 09:48:48;;;;;;;12.25;7.82;;;15.20;99.90;;;;;;4959814;28;20036;-77
2023/07/23 09:51:14;;;;;;;10.68;7.25;;;15.20;99.90;;;;;;4973726;28;20160;-77
2023/07/23 09:53:45;;;;;;;11.25;6.85;;;15.20;99.90;;;;;;5006392;28;20124;-77
2023/07/23 09:56:15;;;;;;;11.98;7.10;;;15.20;99.90;;;;;;4993124;28;20034;-77
2023/07/23 09:58:45;;;;;;;12.93;7.50;;;15.20;99.90;;;;;;4975765;28;20068;-76
2023/07/23 10:01:11;;;;;;;10.50;6.40;;;15.20;99.90;;;;;;4989080;28;20400;-76
2023/07/23 10:03:37;;;;;;;13.15;7.13;;;15.30;99.90;;;;;;4972772;28;20048;-77
2023/07/23 10:06:03;;;;;;;14.65;7.15;;;15.30;99.90;;;;;;4998031;28;20046;-77
2023/07/23 10:08:31;;;;;;;12.00;6.97;;;15.30;99.90;;;;;;5002428;28;20065;-77
2023/07/23 10:10:56;;;;;;;9.95;5.97;;;15.30;99.90;;;;;;4991983;28;20053;-77
2023/07/23 10:13:22;;;;;;;10.55;6.80;;;15.40;99.90;;;;;;4990508;28;20042;-76
2023/07/23 10:15:50;;;;;;;8.45;6.07;;;15.40;99.90;;;;;;4992532;28;20041;-77
2023/07/23 10:18:17;;;;;;;8.90;6.03;;;15.30;99.90;;;;;;4987245;28;20377;-75
2023/07/23 10:20:45;;;;;;;10.07;5.88;;;15.30;99.90;;;;;;4990337;28;20038;-77
2023/07/23 10:23:11;;;;;;;8.25;5.68;;;15.40;99.90;;;;;;4975311;28;20041;-77
2023/07/23 10:25:36;;;;;;;7.00;5.25;;;15.40;99.90;;;;;;4990905;28;20061;-76
2023/07/23 10:28:05;;;;;;;9.90;5.57;;;15.40;99.90;;;;;;4973742;28;20407;-77
2023/07/23 10:30:33;;;;;;;8.90;5.32;;;15.40;99.90;;;;;;5003509;28;20049;-77
2023/07/23 10:33:11;;;;;;;8.38;5.55;;;15.40;99.90;;;;;;4942568;28;20046;-77
2023/07/23 10:35:58;;;;;;;7.57;6.13;;;15.40;99.90;;;;;;4990502;28;20034;-77
2023/07/23 10:38:29;;;;;;;9.98;6.05;;;15.40;99.90;;;;;;5009136;28;20429;-77
2023/07/23 10:40:55;;;;;;;13.57;5.85;;;15.50;99.90;;;;;;4958187;28;20419;-77
2023/07/23 10:43:21;;;;;;;10.82;6.28;;;15.50;99.90;;;;;;4970945;28;20510;-77
2023/07/23 10:45:59;;;;;;;7.70;5.45;;;15.50;99.90;;;;;;4957682;28;20045;-77
2023/07/23 10:48:48;;;;;;;10.35;6.15;;;15.50;99.90;;;;;;4990473;28;20069;-77
2023/07/23 10:51:16;;;;;;;9.85;5.95;;;15.50;99.90;;;;;;4990241;28;20034;-77
2023/07/23 10:54:01;;;;;;;10.07;6.20;;;15.50;99.90;;;;;;4972959;28;20034;-78
2023/07/23 10:56:32;;;;;;;9.25;6.05;;;15.50;99.90;;;;;;4976997;28;20047;-78
2023/07/23 10:59:28;;;;;;;9.10;6.15;;;15.50;99.90;;;;;;4974375;28;20100;-77
2023/07/23 11:01:54;;;;;;;9.50;5.88;;;15.60;99.90;;;;;;4989965;28;20515;-77
2023/07/23 11:04:26;;;;;;;11.73;7.05;;;15.60;99.90;;;;;;4955735;28;20038;-78
2023/07/23 11:06:56;;;;;;;;;;;15.60;99.90;;;;;;4975454;28;20034;-78
2023/07/23 11:09:37;;;;;;;9.93;5.80;;;15.60;99.90;;;;;;4972610;28;20024;-78
2023/07/23 11:12:05;;;;;;;10.13;6.63;;;15.60;99.90;;;;;;4973758;28;20034;-78
2023/07/23 11:14:32;;;;;;;10.23;6.03;;;15.70;99.90;;;;;;4990481;28;20529;-78
2023/07/23 11:17:02;;;;;;;9.65;6.38;;;15.70;99.90;;;;;;4989091;28;20052;-78
2023/07/23 11:19:31;;;;;;;10.27;6.65;;;15.70;99.90;;;;;;4972876;28;20065;-77
2023/07/23 11:22:02;;;;;;;13.23;6.15;;;15.70;99.90;;;;;;4976355;28;20303;-77
2023/07/23 11:24:29;;;;;;;10.18;6.45;;;15.70;99.90;;;;;;4992779;28;20052;-77
2023/07/23 11:27:01;;;;;;;9.80;6.00;;;15.70;99.90;;;;;;4992602;28;20062;-77
2023/07/23 11:29:28;;;;;;;9.07;5.90;;;15.70;99.90;;;;;;4968271;28;20046;-77
2023/07/23 11:31:54;;;;;;;11.25;6.88;;;15.70;99.90;;;;;;4992854;28;20284;-77
2023/07/23 11:34:22;;;;;;;7.63;5.97;;;15.70;99.90;;;;;;4988422;28;20495;-77
2023/07/23 11:36:52;;;;;;;10.57;5.70;;;15.80;99.90;;;;;;4991035;28;20104;-77
2023/07/23 11:39:19;;;;;;;13.13;6.65;;;15.80;99.90;;;;;;4992285;28;20399;-77
2023/07/23 11:41:45;;;;;;;12.82;6.10;;;15.80;99.90;;;;;;4989668;28;20526;-77
2023/07/23 11:44:11;;;;;;;11.40;6.38;;;15.90;99.90;;;;;;4962268;28;20046;-77
2023/07/23 11:46:39;;;;;;;12.30;6.07;;;15.80;99.90;;;;;;4992859;28;20442;-77
2023/07/23 11:49:06;;;;;;;9.00;5.75;;;15.80;99.90;;;;;;4974275;28;20045;-77
2023/07/23 11:51:33;;;;;;;8.60;6.30;;;15.90;99.90;;;;;;4973985;28;20684;-77
2023/07/23 11:54:12;;;;;;;8.80;5.97;;;15.90;99.90;;;;;;4982132;28;20061;-77
2023/07/23 11:56:48;;;;;;;9.02;5.30;;;15.90;99.90;;;;;;4976655;28;20078;-77
2023/07/23 11:59:16;;;;;;;9.90;5.95;;;15.90;99.90;;;;;;4975083;28;20099;-78
2023/07/23 12:01:42;;;;;;;8.40;5.32;;;16.00;99.90;;;;;;4975977;28;20042;-78
2023/07/23 12:04:09;;;;;;;8.73;5.40;;;15.90;99.90;;;;;;4971160;28;20060;-78
2023/07/23 12:06:39;;;;;;;8.30;4.47;;;16.00;99.90;;;;;;4957252;28;20048;-78
2023/07/23 12:09:08;;;;;;;7.00;4.90;;;16.00;99.90;;;;;;4968991;28;20126;-78
2023/07/23 12:11:36;;;;;;;6.57;4.85;;;16.00;99.90;;;;;;4967509;28;20093;-78
2023/07/23 12:14:06;;;;;;;9.55;5.60;;;16.00;99.90;;;;;;4988446;28;20120;-78
2023/07/23 12:16:41;;;;;;;8.35;4.80;;;16.00;99.90;;;;;;4977545;28;20494;-78
2023/07/23 12:19:09;;;;;;;9.50;5.60;;;16.10;99.90;;;;;;5009323;28;20446;-78
2023/07/23 12:21:37;;;;;;;8.52;5.22;;;16.00;99.90;;;;;;4976685;28;20410;-78
2023/07/23 12:24:13;;;;;;;8.38;4.95;;;16.10;99.90;;;;;;4993090;28;20100;-78
2023/07/23 12:26:38;;;;;;;7.32;4.55;;;16.10;99.90;;;;;;4977319;28;20073;-78
2023/07/23 12:29:05;;;;;;;6.32;4.80;;;16.00;99.90;;;;;;4991592;28;20069;-78
2023/07/23 12:31:30;;;;;;;7.80;4.95;;;16.10;99.90;;;;;;4973806;28;20054;-78
2023/07/23 12:33:56;;;;;;;7.97;4.57;;;16.10;99.90;;;;;;4953917;28;20092;-78
2023/07/23 12:36:22;;;;;;;5.70;4.18;;;16.10;99.90;;;;;;4989372;28;20132;-78